sensor_id;sensor_type;location;lat;lon;timestamp;P1;P4;P2;P0;N10;N4;N25;N1;N05;TS
73340;SPS30;61578;52.002;5.468;2023-12-20T00:00:18;8.01;7.61;6.85;5.63;44.43;44.38;44.20;43.03;35.50;0.70
73340;SPS30;61578;52.002;5.468;2023-12-20T00:00:49;8.36;7.92;7.10;5.79;45.72;45.67;45.47;44.22;36.39;0.70
73340;SPS30;61578;52.002;5.468;2023-12-20T00:01:20;7.74;7.35;6.60;5.41;42.72;42.67;42.49;41.35;34.09;0.69
73340;SPS30;61578;52.002;5.468;2023-12-20T00:01:52;6.92;6.61;6.01;5.03;39.72;39.68;39.54;38.62;32.05;0.67
73340;SPS30;61578;52.002;5.468;2023-12-20T00:02:23;6.64;6.36;5.84;4.95;39.04;39.00;38.87;38.04;31.69;0.66
73340;SPS30;61578;52.002;5.468;2023-12-20T00:02:54;6.55;6.26;5.73;4.83;38.11;38.07;37.94;37.10;30.86;0.66
73340;SPS30;61578;52.002;5.468;2023-12-20T00:03:24;7.46;7.14;6.54;5.51;43.51;43.47;43.32;42.37;35.25;0.67
73340;SPS30;61578;52.002;5.468;2023-12-20T00:03:55;7.04;6.74;6.17;5.21;41.12;41.08;40.94;40.05;33.33;0.67
73340;SPS30;61578;52.002;5.468;2023-12-20T00:04:26;6.42;6.16;5.67;4.82;38.05;38.02;37.89;37.11;30.96;0.66
73340;SPS30;61578;52.002;5.468;2023-12-20T00:04:57;6.11;5.87;5.42;4.63;36.55;36.52;36.41;35.68;29.81;0.67
73340;SPS30;61578;52.002;5.468;2023-12-20T00:05:27;5.88;5.65;5.22;4.46;35.18;35.15;35.04;34.35;28.69;0.67
73340;SPS30;61578;52.002;5.468;2023-12-20T00:05:58;5.71;5.49;5.07;4.33;34.18;34.15;34.05;33.37;27.88;0.67
73340;SPS30;61578;52.002;5.468;2023-12-20T00:06:29;5.56;5.36;4.97;4.29;33.83;33.80;33.70;33.08;27.71;0.67
73340;SPS30;61578;52.002;5.468;2023-12-20T00:07:01;5.62;5.42;5.03;4.33;34.15;34.12;34.02;33.39;27.96;0.66
73340;SPS30;61578;52.002;5.468;2023-12-20T00:07:32;6.40;6.16;5.72;4.94;38.91;38.88;38.77;38.05;31.87;0.65
73340;SPS30;61578;52.002;5.468;2023-12-20T00:08:02;5.89;5.69;5.30;4.59;36.22;36.19;36.09;35.46;29.75;0.64
73340;SPS30;61578;52.002;5.468;2023-12-20T00:08:35;4.95;4.79;4.50;3.95;31.09;31.07;31.00;30.50;25.67;0.63
73340;SPS30;61578;52.002;5.468;2023-12-20T00:09:06;4.72;4.57;4.30;3.78;29.75;29.73;29.66;29.19;24.58;0.64
73340;SPS30;61578;52.002;5.468;2023-12-20T00:09:37;4.99;4.84;4.55;4.00;31.54;31.52;31.45;30.96;26.08;0.63
73340;SPS30;61578;52.002;5.468;2023-12-20T00:10:08;4.91;4.76;4.48;3.94;31.04;31.02;30.95;30.47;25.67;0.64
73340;SPS30;61578;52.002;5.468;2023-12-20T00:10:39;5.33;5.16;4.83;4.22;33.29;33.27;33.19;32.64;27.45;0.64
73340;SPS30;61578;52.002;5.468;2023-12-20T00:11:10;5.65;5.47;5.13;4.48;35.33;35.31;35.22;34.65;29.14;0.63
73340;SPS30;61578;52.002;5.468;2023-12-20T00:11:41;5.66;5.51;5.22;4.63;36.45;36.43;36.35;35.84;30.27;0.62
73340;SPS30;61578;52.002;5.468;2023-12-20T00:12:12;4.76;4.65;4.43;3.96;31.19;31.17;31.12;30.72;26.01;0.61
73340;SPS30;61578;52.002;5.468;2023-12-20T00:12:43;4.89;4.78;4.58;4.13;32.49;32.47;32.42;32.04;27.18;0.61
73340;SPS30;61578;52.002;5.468;2023-12-20T00:13:13;4.62;4.52;4.32;3.88;30.56;30.54;30.49;30.12;25.54;0.61
73340;SPS30;61578;52.002;5.468;2023-12-20T00:13:44;4.90;4.79;4.57;4.10;32.29;32.28;32.22;31.82;26.96;0.61
73340;SPS30;61578;52.002;5.468;2023-12-20T00:14:15;5.33;5.21;4.97;4.46;35.09;35.07;35.00;34.57;29.29;0.61
73340;SPS30;61578;52.002;5.468;2023-12-20T00:14:46;5.04;4.92;4.70;4.21;33.15;33.13;33.07;32.66;27.67;0.60
73340;SPS30;61578;52.002;5.468;2023-12-20T00:15:17;4.38;4.28;4.08;3.67;28.87;28.85;28.80;28.45;24.11;0.58
73340;SPS30;61578;52.002;5.468;2023-12-20T00:15:48;4.74;4.63;4.42;3.96;31.15;31.14;31.08;30.69;25.99;0.59
73340;SPS30;61578;52.002;5.468;2023-12-20T00:16:18;4.80;4.67;4.43;3.94;31.07;31.05;30.99;30.56;25.83;0.61
73340;SPS30;61578;52.002;5.468;2023-12-20T00:16:49;4.62;4.51;4.29;3.83;30.13;30.11;30.05;29.66;25.09;0.61
73340;SPS30;61578;52.002;5.468;2023-12-20T00:17:20;4.54;4.44;4.23;3.79;29.88;29.86;29.81;29.44;24.94;0.60
73340;SPS30;61578;52.002;5.468;2023-12-20T00:17:51;5.02;4.90;4.69;4.22;33.19;33.17;33.12;32.72;27.74;0.61
73340;SPS30;61578;52.002;5.468;2023-12-20T00:18:23;5.17;5.07;4.87;4.41;34.71;34.69;34.63;34.25;29.10;0.61
73340;SPS30;61578;52.002;5.468;2023-12-20T00:18:54;4.85;4.76;4.58;4.15;32.65;32.63;32.58;32.23;27.39;0.62
73340;SPS30;61578;52.002;5.468;2023-12-20T00:19:24;4.49;4.40;4.23;3.83;30.15;30.13;30.08;29.75;25.27;0.61
73340;SPS30;61578;52.002;5.468;2023-12-20T00:19:55;4.98;4.89;4.72;4.29;33.79;33.78;33.73;33.39;28.40;0.59
73340;SPS30;61578;52.002;5.468;2023-12-20T00:20:26;5.00;4.92;4.75;4.33;34.09;34.07;34.02;33.69;28.67;0.60
73340;SPS30;61578;52.002;5.468;2023-12-20T00:20:59;4.73;4.65;4.48;4.07;32.06;32.04;31.99;31.66;26.93;0.61
73340;SPS30;61578;52.002;5.468;2023-12-20T00:21:30;4.94;4.83;4.63;4.18;32.88;32.86;32.81;32.43;27.52;0.61
73340;SPS30;61578;52.002;5.468;2023-12-20T00:22:01;4.93;4.81;4.59;4.11;32.37;32.36;32.30;31.89;27.01;0.61
73340;SPS30;61578;52.002;5.468;2023-12-20T00:22:31;4.90;4.78;4.56;4.08;32.11;32.09;32.03;31.62;26.78;0.61
73340;SPS30;61578;52.002;5.468;2023-12-20T00:23:02;4.77;4.65;4.43;3.97;31.25;31.23;31.17;30.77;26.06;0.61
73340;SPS30;61578;52.002;5.468;2023-12-20T00:23:33;4.64;4.53;4.32;3.87;30.47;30.45;30.40;30.02;25.42;0.61
73340;SPS30;61578;52.002;5.468;2023-12-20T00:24:04;4.58;4.46;4.25;3.81;29.98;29.97;29.91;29.53;25.00;0.61
73340;SPS30;61578;52.002;5.468;2023-12-20T00:24:35;5.02;4.90;4.66;4.17;32.82;32.80;32.74;32.31;27.35;0.60
73340;SPS30;61578;52.002;5.468;2023-12-20T00:25:06;5.11;5.00;4.78;4.31;33.91;33.89;33.84;33.44;28.36;0.59
73340;SPS30;61578;52.002;5.468;2023-12-20T00:25:38;5.17;5.06;4.86;4.39;34.55;34.54;34.48;34.09;28.95;0.59
73340;SPS30;61578;52.002;5.468;2023-12-20T00:26:08;5.29;5.18;4.96;4.48;35.25;35.23;35.17;34.76;29.50;0.61
73340;SPS30;61578;52.002;5.468;2023-12-20T00:26:39;4.60;4.50;4.32;3.91;30.77;30.75;30.70;30.36;25.78;0.60
73340;SPS30;61578;52.002;5.468;2023-12-20T00:27:10;4.40;4.32;4.17;3.80;29.88;29.87;29.83;29.53;25.12;0.59
73340;SPS30;61578;52.002;5.468;2023-12-20T00:27:41;4.55;4.46;4.31;3.92;30.88;30.87;30.82;30.51;25.96;0.59
73340;SPS30;61578;52.002;5.468;2023-12-20T00:28:12;4.26;4.18;4.03;3.66;28.81;28.80;28.76;28.46;24.20;0.60
73340;SPS30;61578;52.002;5.468;2023-12-20T00:28:43;4.38;4.29;4.12;3.72;29.32;29.30;29.26;28.93;24.56;0.60
73340;SPS30;61578;52.002;5.468;2023-12-20T00:29:13;4.46;4.36;4.18;3.78;29.73;29.71;29.66;29.33;24.89;0.61
73340;SPS30;61578;52.002;5.468;2023-12-20T00:29:44;4.65;4.55;4.35;3.92;30.86;30.84;30.79;30.42;25.80;0.63
73340;SPS30;61578;52.002;5.468;2023-12-20T00:30:18;4.97;4.83;4.55;4.02;31.68;31.66;31.59;31.12;26.25;0.64
73340;SPS30;61578;52.002;5.468;2023-12-20T00:30:48;4.62;4.49;4.23;3.73;29.39;29.37;29.30;28.87;24.34;0.63
73340;SPS30;61578;52.002;5.468;2023-12-20T00:31:19;4.49;4.35;4.08;3.58;28.21;28.19;28.12;27.67;23.29;0.63
73340;SPS30;61578;52.002;5.468;2023-12-20T00:31:50;4.23;4.10;3.84;3.36;26.50;26.48;26.42;25.99;21.87;0.64
73340;SPS30;61578;52.002;5.468;2023-12-20T00:32:21;4.63;4.49;4.22;3.71;29.21;29.19;29.12;28.66;24.14;0.63
73340;SPS30;61578;52.002;5.468;2023-12-20T00:32:51;4.45;4.31;4.05;3.55;27.96;27.94;27.87;27.43;23.08;0.64
73340;SPS30;61578;52.002;5.468;2023-12-20T00:33:22;5.23;5.06;4.74;4.15;32.68;32.66;32.57;32.04;26.94;0.65
73340;SPS30;61578;52.002;5.468;2023-12-20T00:33:53;5.53;5.34;4.98;4.32;34.05;34.02;33.93;33.33;27.97;0.65
73340;SPS30;61578;52.002;5.468;2023-12-20T00:34:24;5.19;5.00;4.64;4.00;31.55;31.53;31.44;30.86;25.85;0.65
73340;SPS30;61578;52.002;5.468;2023-12-20T00:34:55;5.32;5.11;4.72;4.04;31.83;31.80;31.70;31.07;25.96;0.66
73340;SPS30;61578;52.002;5.468;2023-12-20T00:35:26;5.00;4.80;4.43;3.78;29.85;29.82;29.73;29.13;24.33;0.66
73340;SPS30;61578;52.002;5.468;2023-12-20T00:35:57;4.96;4.78;4.45;3.85;30.32;30.30;30.21;29.67;24.87;0.64
73340;SPS30;61578;52.002;5.468;2023-12-20T00:36:27;4.55;4.39;4.11;3.57;28.16;28.14;28.06;27.59;23.17;0.64
73340;SPS30;61578;52.002;5.468;2023-12-20T00:36:58;4.32;4.19;3.95;3.48;27.42;27.40;27.33;26.92;22.69;0.62
73340;SPS30;61578;52.002;5.468;2023-12-20T00:37:29;4.42;4.30;4.06;3.59;28.26;28.24;28.18;27.76;23.43;0.63
73340;SPS30;61578;52.002;5.468;2023-12-20T00:38:00;4.74;4.62;4.40;3.92;30.89;30.87;30.81;30.41;25.72;0.62
73340;SPS30;61578;52.002;5.468;2023-12-20T00:38:31;4.94;4.82;4.60;4.12;32.48;32.46;32.40;31.99;27.10;0.62
73340;SPS30;61578;52.002;5.468;2023-12-20T00:39:02;4.66;4.54;4.31;3.83;30.20;30.18;30.12;29.71;25.11;0.64
73340;SPS30;61578;52.002;5.468;2023-12-20T00:39:33;3.92;3.81;3.60;3.18;25.03;25.01;24.96;24.59;20.74;0.64
73340;SPS30;61578;52.002;5.468;2023-12-20T00:40:04;3.98;3.85;3.60;3.14;24.74;24.72;24.66;24.25;20.38;0.67
73340;SPS30;61578;52.002;5.468;2023-12-20T00:40:36;4.53;4.34;3.98;3.36;26.50;26.47;26.38;25.81;21.48;0.68
73340;SPS30;61578;52.002;5.468;2023-12-20T00:41:07;5.23;4.97;4.50;3.72;29.38;29.35;29.23;28.50;23.57;0.69
73340;SPS30;61578;52.002;5.468;2023-12-20T00:41:37;4.90;4.64;4.16;3.39;26.77;26.74;26.62;25.89;21.30;0.71
73340;SPS30;61578;52.002;5.468;2023-12-20T00:42:08;6.29;5.92;5.22;4.15;32.84;32.80;32.63;31.59;25.77;0.72
73340;SPS30;61578;52.002;5.468;2023-12-20T00:42:39;5.77;5.39;4.69;3.63;28.72;28.67;28.51;27.47;22.21;0.74
73340;SPS30;61578;52.002;5.468;2023-12-20T00:43:10;5.10;4.76;4.11;3.15;24.94;24.90;24.75;23.80;19.17;0.74
73340;SPS30;61578;52.002;5.468;2023-12-20T00:43:40;4.93;4.59;3.94;2.99;23.67;23.63;23.48;22.53;18.08;0.74
73340;SPS30;61578;52.002;5.468;2023-12-20T00:44:11;5.91;5.50;4.72;3.57;28.29;28.24;28.05;26.92;21.58;0.73
73340;SPS30;61578;52.002;5.468;2023-12-20T00:44:42;5.54;5.16;4.43;3.37;26.67;26.63;26.46;25.40;20.39;0.73
73340;SPS30;61578;52.002;5.468;2023-12-20T00:45:13;6.15;5.73;4.94;3.77;29.83;29.78;29.59;28.44;22.87;0.73
73340;SPS30;61578;52.002;5.468;2023-12-20T00:45:44;5.71;5.34;4.63;3.58;28.30;28.26;28.09;27.05;21.85;0.73
73340;SPS30;61578;52.002;5.468;2023-12-20T00:46:15;6.33;5.92;5.13;3.97;31.38;31.34;31.15;30.00;24.23;0.72
73340;SPS30;61578;52.002;5.468;2023-12-20T00:46:49;6.10;5.69;4.91;3.76;29.76;29.72;29.53;28.39;22.86;0.73
73340;SPS30;61578;52.002;5.468;2023-12-20T00:47:20;5.37;5.01;4.31;3.28;25.97;25.93;25.76;24.74;19.88;0.74
73340;SPS30;61578;52.002;5.468;2023-12-20T00:47:51;6.14;5.70;4.85;3.63;28.76;28.71;28.51;27.29;21.78;0.75
73340;SPS30;61578;52.002;5.468;2023-12-20T00:48:21;5.79;5.37;4.57;3.40;26.96;26.91;26.72;25.55;20.36;0.74
73340;SPS30;61578;52.002;5.468;2023-12-20T00:48:52;5.96;5.53;4.73;3.56;28.21;28.16;27.97;26.81;21.45;0.73
73340;SPS30;61578;52.002;5.468;2023-12-20T00:49:23;6.17;5.75;4.95;3.78;29.93;29.88;29.69;28.53;22.94;0.71
73340;SPS30;61578;52.002;5.468;2023-12-20T00:49:54;6.27;5.87;5.12;3.99;31.61;31.56;31.38;30.27;24.54;0.69
73340;SPS30;61578;52.002;5.468;2023-12-20T00:50:24;5.10;4.78;4.19;3.28;25.95;25.92;25.77;24.89;20.21;0.70
73340;SPS30;61578;52.002;5.468;2023-12-20T00:50:55;5.20;4.88;4.27;3.35;26.54;26.50;26.35;25.45;20.68;0.71
73340;SPS30;61578;52.002;5.468;2023-12-20T00:51:27;4.98;4.66;4.06;3.15;24.95;24.92;24.77;23.88;19.33;0.72
73340;SPS30;61578;52.002;5.468;2023-12-20T00:51:57;5.35;5.00;4.32;3.31;26.20;26.16;26.00;25.01;20.15;0.73
73340;SPS30;61578;52.002;5.468;2023-12-20T00:52:28;5.49;5.11;4.39;3.33;26.41;26.37;26.20;25.15;20.19;0.73
73340;SPS30;61578;52.002;5.468;2023-12-20T00:52:59;5.53;5.16;4.44;3.38;26.74;26.70;26.53;25.48;20.47;0.72
73340;SPS30;61578;52.002;5.468;2023-12-20T00:53:30;5.97;5.55;4.76;3.61;28.57;28.53;28.34;27.19;21.80;0.72
73340;SPS30;61578;52.002;5.468;2023-12-20T00:54:01;5.74;5.35;4.61;3.52;27.85;27.80;27.63;26.55;21.35;0.70
73340;SPS30;61578;52.002;5.468;2023-12-20T00:54:31;5.26;4.91;4.24;3.25;25.73;25.69;25.53;24.55;19.78;0.71
73340;SPS30;61578;52.002;5.468;2023-12-20T00:55:02;5.38;5.01;4.31;3.27;25.91;25.86;25.70;24.67;19.81;0.71
73340;SPS30;61578;52.002;5.468;2023-12-20T00:55:34;5.85;5.45;4.69;3.57;28.24;28.19;28.01;26.90;21.61;0.72
73340;SPS30;61578;52.002;5.468;2023-12-20T00:56:05;5.58;5.21;4.50;3.46;27.37;27.32;27.16;26.12;21.06;0.71
73340;SPS30;61578;52.002;5.468;2023-12-20T00:56:36;5.39;5.05;4.39;3.41;26.97;26.93;26.77;25.81;20.88;0.70
73340;SPS30;61578;52.002;5.468;2023-12-20T00:57:07;4.89;4.58;3.98;3.09;24.48;24.45;24.30;23.43;18.96;0.70
73340;SPS30;61578;52.002;5.468;2023-12-20T00:57:38;5.65;5.29;4.58;3.54;28.02;27.98;27.81;26.78;21.63;0.70
73340;SPS30;61578;52.002;5.468;2023-12-20T00:58:08;5.62;5.23;4.50;3.42;27.08;27.04;26.87;25.80;20.72;0.71
73340;SPS30;61578;52.002;5.468;2023-12-20T00:58:39;6.29;5.88;5.10;3.94;31.15;31.11;30.92;29.77;24.04;0.71
73340;SPS30;61578;52.002;5.468;2023-12-20T00:59:10;5.68;5.31;4.63;3.59;28.44;28.39;28.23;27.21;22.03;0.71
73340;SPS30;61578;52.002;5.468;2023-12-20T00:59:41;5.22;4.89;4.26;3.32;26.28;26.24;26.09;25.16;20.39;0.71
73340;SPS30;61578;52.002;5.468;2023-12-20T01:00:12;5.35;5.00;4.35;3.37;26.66;26.62;26.47;25.50;20.62;0.72
73340;SPS30;61578;52.002;5.468;2023-12-20T01:00:43;6.00;5.59;4.79;3.63;28.72;28.67;28.48;27.33;21.91;0.74
73340;SPS30;61578;52.002;5.468;2023-12-20T01:01:15;5.71;5.30;4.53;3.40;26.97;26.93;26.74;25.63;20.49;0.73
73340;SPS30;61578;52.002;5.468;2023-12-20T01:01:45;5.39;5.03;4.34;3.32;26.26;26.21;26.05;25.04;20.15;0.72
73340;SPS30;61578;52.002;5.468;2023-12-20T01:02:16;5.79;5.38;4.62;3.49;27.66;27.61;27.43;26.31;21.09;0.73
73340;SPS30;61578;52.002;5.468;2023-12-20T01:02:47;5.56;5.17;4.44;3.36;26.65;26.61;26.43;25.37;20.35;0.73
73340;SPS30;61578;52.002;5.468;2023-12-20T01:03:20;4.69;4.38;3.77;2.88;22.77;22.74;22.59;21.71;17.46;0.73
73340;SPS30;61578;52.002;5.468;2023-12-20T01:03:50;5.54;5.17;4.49;3.46;27.41;27.37;27.21;26.20;21.16;0.71
73340;SPS30;61578;52.002;5.468;2023-12-20T01:04:21;5.64;5.28;4.60;3.57;28.26;28.22;28.06;27.05;21.89;0.71
73340;SPS30;61578;52.002;5.468;2023-12-20T01:04:52;4.86;4.56;3.99;3.14;24.83;24.80;24.66;23.82;19.36;0.70
73340;SPS30;61578;52.002;5.468;2023-12-20T01:05:23;4.91;4.61;4.04;3.18;25.12;25.09;24.95;24.10;19.59;0.71
73340;SPS30;61578;52.002;5.468;2023-12-20T01:05:53;5.33;4.99;4.34;3.38;26.75;26.71;26.56;25.61;20.74;0.72
73340;SPS30;61578;52.002;5.468;2023-12-20T01:06:24;5.87;5.48;4.75;3.66;28.95;28.90;28.73;27.66;22.32;0.72
73340;SPS30;61578;52.002;5.468;2023-12-20T01:06:55;6.17;5.76;4.96;3.79;30.04;29.99;29.80;28.65;23.05;0.73
73340;SPS30;61578;52.002;5.468;2023-12-20T01:07:26;5.54;5.17;4.47;3.44;27.19;27.15;26.98;25.96;20.93;0.73
73340;SPS30;61578;52.002;5.468;2023-12-20T01:07:56;5.10;4.75;4.08;3.09;24.48;24.43;24.27;23.30;18.69;0.74
73340;SPS30;61578;52.002;5.468;2023-12-20T01:08:27;5.44;5.05;4.32;3.25;25.75;25.70;25.53;24.47;19.57;0.74
73340;SPS30;61578;52.002;5.468;2023-12-20T01:08:58;6.56;6.08;5.18;3.86;30.59;30.54;30.32;29.01;23.13;0.75
73340;SPS30;61578;52.002;5.468;2023-12-20T01:09:29;6.20;5.74;4.88;3.64;28.84;28.79;28.59;27.35;21.80;0.75
73340;SPS30;61578;52.002;5.468;2023-12-20T01:10:00;5.03;4.67;3.98;2.97;23.57;23.53;23.37;22.37;17.86;0.74
73340;SPS30;61578;52.002;5.468;2023-12-20T01:10:30;5.24;4.87;4.18;3.17;25.10;25.06;24.89;23.89;19.16;0.73
73340;SPS30;61578;52.002;5.468;2023-12-20T01:11:03;4.71;4.39;3.78;2.88;22.84;22.81;22.66;21.77;17.51;0.73
73340;SPS30;61578;52.002;5.468;2023-12-20T01:11:36;5.48;5.13;4.45;3.45;27.28;27.24;27.08;26.09;21.09;0.70
73340;SPS30;61578;52.002;5.468;2023-12-20T01:12:07;5.22;4.89;4.27;3.34;26.39;26.35;26.20;25.29;20.51;0.70
73340;SPS30;61578;52.002;5.468;2023-12-20T01:12:37;5.39;5.05;4.40;3.42;27.05;27.01;26.86;25.89;20.97;0.71
73340;SPS30;61578;52.002;5.468;2023-12-20T01:13:08;5.09;4.78;4.19;3.29;25.99;25.96;25.81;24.93;20.26;0.70
73340;SPS30;61578;52.002;5.468;2023-12-20T01:13:39;4.95;4.65;4.08;3.22;25.46;25.42;25.28;24.44;19.89;0.69
73340;SPS30;61578;52.002;5.468;2023-12-20T01:14:10;5.16;4.86;4.28;3.39;26.82;26.79;26.65;25.78;21.02;0.67
73340;SPS30;61578;52.002;5.468;2023-12-20T01:14:41;5.12;4.81;4.22;3.33;26.34;26.30;26.16;25.29;20.58;0.68
73340;SPS30;61578;52.002;5.468;2023-12-20T01:15:12;5.16;4.82;4.18;3.22;25.51;25.47;25.31;24.37;19.67;0.69
73340;SPS30;61578;52.002;5.468;2023-12-20T01:15:43;5.68;5.29;4.55;3.47;27.45;27.40;27.22;26.15;21.00;0.69
73340;SPS30;61578;52.002;5.468;2023-12-20T01:16:14;5.17;4.82;4.14;3.15;24.92;24.88;24.71;23.73;19.05;0.68
73340;SPS30;61578;52.002;5.468;2023-12-20T01:16:45;5.88;5.48;4.72;3.60;28.54;28.49;28.31;27.21;21.88;0.69
73340;SPS30;61578;52.002;5.468;2023-12-20T01:17:16;5.36;4.99;4.30;3.28;25.95;25.91;25.74;24.73;19.88;0.68
73340;SPS30;61578;52.002;5.468;2023-12-20T01:17:47;5.13;4.78;4.13;3.16;25.00;24.96;24.81;23.85;19.20;0.68
73340;SPS30;61578;52.002;5.468;2023-12-20T01:18:17;6.05;5.64;4.88;3.75;29.66;29.61;29.43;28.31;22.82;0.69
73340;SPS30;61578;52.002;5.468;2023-12-20T01:18:48;5.66;5.29;4.58;3.53;27.98;27.94;27.77;26.73;21.59;0.69
73340;SPS30;61578;52.002;5.468;2023-12-20T01:19:19;5.75;5.38;4.66;3.60;28.50;28.46;28.29;27.24;22.00;0.69
73340;SPS30;61578;52.002;5.468;2023-12-20T01:19:50;5.42;5.07;4.40;3.40;26.92;26.88;26.72;25.73;20.79;0.69
73340;SPS30;61578;52.002;5.468;2023-12-20T01:20:21;4.76;4.45;3.87;3.01;23.80;23.77;23.63;22.78;18.44;0.69
73340;SPS30;61578;52.002;5.468;2023-12-20T01:20:51;4.95;4.62;4.01;3.10;24.56;24.52;24.38;23.48;18.97;0.70
73340;SPS30;61578;52.002;5.468;2023-12-20T01:21:22;4.94;4.61;3.97;3.03;24.02;23.98;23.83;22.90;18.42;0.70
73340;SPS30;61578;52.002;5.468;2023-12-20T01:21:54;5.33;4.97;4.29;3.29;26.02;25.98;25.82;24.83;19.99;0.70
73340;SPS30;61578;52.002;5.468;2023-12-20T01:22:25;5.03;4.71;4.10;3.18;25.17;25.13;24.98;24.08;19.49;0.69
73340;SPS30;61578;52.002;5.468;2023-12-20T01:22:56;4.82;4.50;3.90;3.01;23.83;23.79;23.65;22.77;18.38;0.70
73340;SPS30;61578;52.002;5.468;2023-12-20T01:23:27;5.65;5.28;4.57;3.52;27.84;27.80;27.63;26.59;21.45;0.69
73340;SPS30;61578;52.002;5.468;2023-12-20T01:23:58;4.85;4.53;3.91;3.01;23.80;23.77;23.62;22.72;18.32;0.70
73340;SPS30;61578;52.002;5.468;2023-12-20T01:24:29;5.58;5.20;4.47;3.41;27.00;26.96;26.78;25.73;20.68;0.71
73340;SPS30;61578;52.002;5.468;2023-12-20T01:24:59;5.25;4.89;4.21;3.20;25.35;25.31;25.14;24.15;19.40;0.71
73340;SPS30;61578;52.002;5.468;2023-12-20T01:25:30;5.33;4.98;4.30;3.29;26.08;26.04;25.88;24.88;20.04;0.69
73340;SPS30;61578;52.002;5.468;2023-12-20T01:26:01;5.22;4.88;4.23;3.27;25.88;25.84;25.69;24.74;19.98;0.70
73340;SPS30;61578;52.002;5.468;2023-12-20T01:26:32;4.58;4.27;3.69;2.83;22.41;22.38;22.24;21.39;17.24;0.71
73340;SPS30;61578;52.002;5.468;2023-12-20T01:27:03;5.34;4.98;4.32;3.32;26.31;26.27;26.11;25.13;20.28;0.70
73340;SPS30;61578;52.002;5.468;2023-12-20T01:27:34;5.32;4.98;4.32;3.35;26.50;26.46;26.31;25.35;20.50;0.69
73340;SPS30;61578;52.002;5.468;2023-12-20T01:28:05;5.46;5.11;4.43;3.43;27.14;27.10;26.94;25.95;20.97;0.71
73340;SPS30;61578;52.002;5.468;2023-12-20T01:28:36;5.25;4.90;4.23;3.24;25.69;25.65;25.49;24.51;19.75;0.72
73340;SPS30;61578;52.002;5.468;2023-12-20T01:29:06;5.66;5.27;4.53;3.44;27.25;27.21;27.03;25.95;20.83;0.73
73340;SPS30;61578;52.002;5.468;2023-12-20T01:29:37;5.15;4.80;4.12;3.13;24.80;24.76;24.60;23.62;18.96;0.73
73340;SPS30;61578;52.002;5.468;2023-12-20T01:30:08;5.06;4.71;4.04;3.07;24.30;24.26;24.10;23.14;18.57;0.74
73340;SPS30;61578;52.002;5.468;2023-12-20T01:30:40;5.82;5.40;4.59;3.42;27.14;27.09;26.90;25.73;20.52;0.75
73340;SPS30;61578;52.002;5.468;2023-12-20T01:31:10;5.07;4.69;3.98;2.94;23.33;23.28;23.12;22.08;17.56;0.75
73340;SPS30;61578;52.002;5.468;2023-12-20T01:31:41;5.66;5.22;4.38;3.17;25.18;25.13;24.93;23.73;18.71;0.76
73340;SPS30;61578;52.002;5.468;2023-12-20T01:32:12;5.69;5.24;4.39;3.17;25.15;25.10;24.90;23.68;18.65;0.74
73340;SPS30;61578;52.002;5.468;2023-12-20T01:32:43;6.34;5.85;4.92;3.59;28.51;28.45;28.23;26.90;21.27;0.73
73340;SPS30;61578;52.002;5.468;2023-12-20T01:33:14;6.55;6.03;5.03;3.62;28.70;28.64;28.40;26.98;21.19;0.74
73340;SPS30;61578;52.002;5.468;2023-12-20T01:33:44;6.92;6.34;5.24;3.69;29.34;29.28;29.02;27.45;21.39;0.76
73340;SPS30;61578;52.002;5.468;2023-12-20T01:34:15;6.69;6.14;5.08;3.60;28.58;28.52;28.27;26.77;20.90;0.76
73340;SPS30;61578;52.002;5.468;2023-12-20T01:34:46;7.25;6.67;5.57;4.01;31.80;31.74;31.48;29.91;23.50;0.75
73340;SPS30;61578;52.002;5.468;2023-12-20T01:35:18;5.74;5.26;4.36;3.08;24.47;24.42;24.20;22.91;17.88;0.78
73340;SPS30;61578;52.002;5.468;2023-12-20T01:35:49;6.02;5.51;4.53;3.16;25.13;25.08;24.85;23.46;18.21;0.79
73340;SPS30;61578;52.002;5.468;2023-12-20T01:36:20;6.55;5.99;4.92;3.42;27.17;27.11;26.86;25.34;19.63;0.78
73340;SPS30;61578;52.002;5.468;2023-12-20T01:36:51;6.09;5.58;4.62;3.27;26.00;25.94;25.72;24.35;19.01;0.77
73340;SPS30;61578;52.002;5.468;2023-12-20T01:37:22;5.28;4.86;4.05;2.90;23.05;23.00;22.81;21.66;17.00;0.76
73340;SPS30;61578;52.002;5.468;2023-12-20T01:37:55;5.22;4.81;4.03;2.91;23.12;23.07;22.89;21.77;17.15;0.76
73340;SPS30;61578;52.002;5.468;2023-12-20T01:38:26;6.23;5.73;4.77;3.42;27.14;27.09;26.86;25.50;20.01;0.76
73340;SPS30;61578;52.002;5.468;2023-12-20T01:38:57;6.71;6.18;5.18;3.76;29.82;29.76;29.53;28.09;22.15;0.72
73340;SPS30;61578;52.002;5.468;2023-12-20T01:39:28;5.85;5.41;4.56;3.35;26.58;26.53;26.33;25.12;19.91;0.72
73340;SPS30;61578;52.002;5.468;2023-12-20T01:39:59;5.59;5.16;4.36;3.21;25.43;25.38;25.19;24.04;19.06;0.72
73340;SPS30;61578;52.002;5.468;2023-12-20T01:40:29;5.53;5.10;4.30;3.14;24.89;24.84;24.65;23.49;18.58;0.73
73340;SPS30;61578;52.002;5.468;2023-12-20T01:41:00;6.24;5.76;4.85;3.54;28.08;28.03;27.81;26.50;20.95;0.72
73340;SPS30;61578;52.002;5.468;2023-12-20T01:41:31;5.73;5.30;4.48;3.30;26.14;26.09;25.89;24.71;19.60;0.71
73340;SPS30;61578;52.002;5.468;2023-12-20T01:42:02;5.41;5.01;4.25;3.16;25.07;25.03;24.85;23.76;18.92;0.72
73340;SPS30;61578;52.002;5.468;2023-12-20T01:42:33;5.09;4.71;4.00;2.96;23.47;23.43;23.26;22.22;17.67;0.71
73340;SPS30;61578;52.002;5.468;2023-12-20T01:43:07;5.23;4.84;4.11;3.06;24.25;24.20;24.03;22.98;18.30;0.71
73340;SPS30;61578;52.002;5.468;2023-12-20T01:43:39;4.79;4.44;3.79;2.83;22.44;22.40;22.24;21.29;16.99;0.71
73340;SPS30;61578;52.002;5.468;2023-12-20T01:44:10;4.73;4.39;3.75;2.81;22.25;22.21;22.06;21.12;16.87;0.70
73340;SPS30;61578;52.002;5.468;2023-12-20T01:44:41;5.96;5.53;4.70;3.51;27.80;27.75;27.56;26.37;21.03;0.71
73340;SPS30;61578;52.002;5.468;2023-12-20T01:45:11;5.80;5.37;4.56;3.39;26.91;26.86;26.67;25.50;20.31;0.72
73340;SPS30;61578;52.002;5.468;2023-12-20T01:45:42;5.61;5.22;4.47;3.38;26.78;26.74;26.56;25.48;20.42;0.70
73340;SPS30;61578;52.002;5.468;2023-12-20T01:46:13;5.37;5.00;4.30;3.27;25.87;25.83;25.67;24.65;19.79;0.70
73340;SPS30;61578;52.002;5.468;2023-12-20T01:46:46;6.18;5.75;4.95;3.77;29.85;29.80;29.61;28.44;22.86;0.70
73340;SPS30;61578;52.002;5.468;2023-12-20T01:47:18;5.25;4.88;4.16;3.13;24.79;24.75;24.58;23.55;18.83;0.71
73340;SPS30;61578;52.002;5.468;2023-12-20T01:47:49;5.73;5.32;4.54;3.41;27.02;26.97;26.79;25.66;20.51;0.71
73340;SPS30;61578;52.002;5.468;2023-12-20T01:48:20;5.29;4.91;4.19;3.15;24.93;24.89;24.72;23.68;18.93;0.72
73340;SPS30;61578;52.002;5.468;2023-12-20T01:48:51;5.12;4.76;4.06;3.05;24.15;24.11;23.95;22.94;18.33;0.72
73340;SPS30;61578;52.002;5.468;2023-12-20T01:49:23;5.87;5.46;4.67;3.51;27.82;27.78;27.59;26.44;21.15;0.73
73340;SPS30;61578;52.002;5.468;2023-12-20T01:49:55;5.83;5.41;4.62;3.47;27.49;27.45;27.26;26.11;20.87;0.72
73340;SPS30;61578;52.002;5.468;2023-12-20T01:50:27;5.97;5.53;4.70;3.49;27.68;27.63;27.43;26.23;20.88;0.73
73340;SPS30;61578;52.002;5.468;2023-12-20T01:51:01;5.07;4.71;4.02;3.01;23.85;23.81;23.64;22.64;18.09;0.72
73340;SPS30;61578;52.002;5.468;2023-12-20T01:51:33;4.47;4.16;3.57;2.71;21.46;21.42;21.28;20.42;16.39;0.72
73340;SPS30;61578;52.002;5.468;2023-12-20T01:52:06;4.66;4.33;3.70;2.79;22.09;22.05;21.91;21.00;16.81;0.73
73340;SPS30;61578;52.002;5.468;2023-12-20T01:52:39;5.62;5.20;4.40;3.25;25.79;25.74;25.55;24.40;19.39;0.74
73340;SPS30;61578;52.002;5.468;2023-12-20T01:53:10;5.57;5.16;4.40;3.28;26.00;25.95;25.77;24.66;19.66;0.73
73340;SPS30;61578;52.002;5.468;2023-12-20T01:53:44;6.26;5.81;4.97;3.73;29.56;29.51;29.31;28.08;22.45;0.74
73340;SPS30;61578;52.002;5.468;2023-12-20T01:54:15;5.23;4.86;4.16;3.13;24.78;24.74;24.57;23.55;18.84;0.74
73340;SPS30;61578;52.002;5.468;2023-12-20T01:54:47;5.37;5.00;4.30;3.27;25.86;25.82;25.65;24.63;19.77;0.72
73340;SPS30;61578;52.002;5.468;2023-12-20T01:55:19;4.75;4.44;3.85;2.96;23.46;23.42;23.28;22.41;18.08;0.71
73340;SPS30;61578;52.002;5.468;2023-12-20T01:55:51;4.71;4.39;3.80;2.91;23.06;23.02;22.88;22.01;17.73;0.72
73340;SPS30;61578;52.002;5.468;2023-12-20T01:56:26;5.09;4.74;4.08;3.11;24.59;24.55;24.40;23.43;18.83;0.72